Nearby METAR Reports

This page may be slow to load as it queries the National Weather Service for data.

KBIS - Bismarck, North Dakota, USA
Distance from station: S 10mi, 15km
Updated: Tue, 26-Mar-2019 2:52am CDT
Overcast
Overcast
 Wind from SSE
Wind: SSE 7 mph , 11 km/h
Temperature: 34°F , 1°C
Wind Chill: 28°F , -2°C
Dew Point: 30°F , -1°C
Humidity: 87%
Barometer: 30.22 inHg , 1023.4 hPa
Clouds: Overcast
Visibility: 10 miles , 16 km
Cloud details: Partly cloudy 2500 ft
Overcast 3000 ft
2019/03/26 07:52 KBIS 260752Z AUTO 15006KT 10SM SCT025 OVC030 01/M01 A3022 RMK AO2 PRESFR SLP255 T00061006
KDIK - Dickinson, North Dakota, USA
Distance from station: W 95mi, 154km
Updated: Tue, 26-Mar-2019 2:56am CDT
Overcast
Overcast
 Wind from S
Wind: S 9 mph , 15 km/h
Temperature: 34°F , 1°C
Wind Chill: 27°F , -3°C
Dew Point: 32°F , 0°C
Humidity: 93%
Barometer: 30.12 inHg , 1020 hPa
Clouds: Overcast
Visibility: 8 miles , 13 km
Cloud details: Overcast 400 ft
2019/03/26 07:56 KDIK 260756Z AUTO 18008KT 8SM OVC004 01/00 A3012 RMK AO2 SLP223 T00060000
 
KISN - Williston, North Dakota, USA
Distance from station: NNW 2mi, 2km
Updated: Tue, 26-Mar-2019 2:52am CDT
Overcast
Overcast
 Wind from SSE
Wind: SSE 9 mph , 15 km/h
Temperature: 39°F , 4°C
Wind Chill: 33°F , 1°C
Dew Point: 34°F , 1°C
Humidity: 81%
Barometer: 30.10 inHg , 1019.3 hPa
Clouds: Overcast
Visibility: 10 miles , 16 km
Cloud details: Overcast 1800 ft
2019/03/26 07:52 KISN 260752Z AUTO 16008KT 10SM OVC018 04/01 A3010 RMK AO2 SLP209 T00390006
KFAR - Fargo, North Dakota, USA
Distance from station: NNW 4mi, 7km
Updated: Tue, 26-Mar-2019 2:53am CDT
Clear
Clear
 Wind from SSE
Wind: SSE 6 mph , 9 km/h
Temperature: 21°F , -6°C
Wind Chill: 13°F , -11°C
Dew Point: 19°F , -7°C
Humidity: 93%
Barometer: 30.34 inHg , 1027.4 hPa
Clouds: Clear
Visibility: 7 miles , 11 km
2019/03/26 07:53 KFAR 260753Z 15005KT 7SM CLR M06/M07 A3034 RMK AO2 SLP289 T10561067
 
KGFK - Grand Forks, North Dakota, USA
Distance from station: NNW 76mi, 123km
Updated: Tue, 26-Mar-2019 2:53am CDT
Clear
Clear
 Wind from S
Wind: S 7 mph , 11 km/h
Temperature: 19°F , -7°C
Wind Chill: 10°F , -12°C
Dew Point: 16°F , -9°C
Humidity: 86%
Barometer: 30.32 inHg , 1026.8 hPa
Clouds: Clear
Visibility: 10 miles , 16 km
2019/03/26 07:53 KGFK 260753Z 19006KT 10SM CLR M07/M09 A3032 RMK AO2 SLP282 T10721089 $
KMOT - Minot, North Dakota, USA
Distance from station: E 109mi, 175km
Updated: Tue, 26-Mar-2019 2:54am CDT
Mostly cloudy
Mostly cloudy
 Wind from SSE
Wind: SSE 9 mph , 15 km/h
Temperature: 34°F , 1°C
Wind Chill: 27°F , -3°C
Dew Point: 30°F , -1°C
Humidity: 87%
Barometer: 30.14 inHg , 1020.7 hPa
Clouds: Mostly cloudy
Visibility: 10 miles , 16 km
Cloud details: Few Clouds 1100 ft
Mostly cloudy 2100 ft
2019/03/26 07:54 KMOT 260754Z AUTO 15008KT 10SM FEW011 BKN021 01/M01 A3014 RMK AO2 SLP227 T00111011